Time;durP1;ratioP1;P1;durP2;ratioP2;P2;SDS_P1;SDS_P2;PMS_P1;PMS_P2;Temp;Humidity;BMP_temperature;BMP_pressure;BME280_temperature;BME280_humidity;BME280_pressure;Samples;Min_cycle;Max_cycle;Signal;HPM_P1;HPM_P2
2024/01/23 00:01:51;;;;;;;22.60;14.30;;;;;;;-2.11;83.20;100733.33;108276;1257;60524;-78
2024/01/23 00:04:17;;;;;;;23.90;15.40;;;;;;;-1.99;83.06;100742.52;106911;1256;60411;-79
2024/01/23 00:06:44;;;;;;;23.30;15.30;;;;;;;-1.95;82.79;100729.90;106765;1251;73828;-78
2024/01/23 00:09:11;;;;;;;22.10;14.60;;;;;;;-2.01;82.87;100740.02;106327;1256;68964;-77
2024/01/23 00:11:38;;;;;;;25.30;16.30;;;;;;;-2.06;83.14;100733.45;106320;1253;71716;-77
2024/01/23 00:14:05;;;;;;;21.70;13.90;;;;;;;-2.00;83.13;100744.81;106171;1256;60543;-78
2024/01/23 00:16:31;;;;;;;25.00;15.90;;;;;;;-1.96;83.01;100729.06;106824;1252;60815;-79
2024/01/23 00:18:58;;;;;;;23.60;14.40;;;;;;;-2.01;83.07;100721.63;106609;1260;60448;-77
2024/01/23 00:21:25;;;;;;;24.00;14.20;;;;;;;-2.05;83.46;100716.42;106545;1253;68819;-78
2024/01/23 00:23:51;;;;;;;22.00;15.40;;;;;;;-1.98;83.49;100719.77;106683;1257;72696;-78
2024/01/23 00:26:18;;;;;;;22.00;14.80;;;;;;;-1.92;83.37;100710.80;106552;1251;60450;-78
2024/01/23 00:28:45;;;;;;;25.60;14.40;;;;;;;-1.97;83.30;100705.85;107833;1256;60351;-78
2024/01/23 00:31:12;;;;;;;22.60;14.00;;;;;;;-2.00;83.31;100702.30;107992;1255;72560;-78
2024/01/23 00:33:38;;;;;;;20.60;14.20;;;;;;;-1.90;83.31;100669.42;107314;1251;70451;-77
2024/01/23 00:36:05;;;;;;;25.30;17.40;;;;;;;-1.88;83.11;100692.08;106318;1254;71235;-79
2024/01/23 00:38:32;;;;;;;22.40;14.80;;;;;;;-1.95;83.19;100684.38;105903;1251;60551;-77
2024/01/23 00:40:58;;;;;;;22.40;14.00;;;;;;;-1.97;83.44;100676.13;105960;1254;60540;-78
2024/01/23 00:43:26;;;;;;;20.40;14.30;;;;;;;-1.86;83.24;100686.95;106069;1256;60423;-76
2024/01/23 00:45:52;;;;;;;23.00;15.10;;;;;;;-1.86;83.18;100688.88;106079;1256;70173;-77
2024/01/23 00:48:19;;;;;;;22.90;14.50;;;;;;;-1.93;83.22;100675.12;106605;1256;72672;-76
2024/01/23 00:50:46;;;;;;;22.00;14.00;;;;;;;-1.94;83.46;100674.64;107689;1254;60490;-75
2024/01/23 00:53:13;;;;;;;22.90;15.00;;;;;;;-1.86;83.52;100684.16;106970;1252;60932;-76
2024/01/23 00:55:39;;;;;;;23.30;14.50;;;;;;;-1.85;83.48;100670.59;108722;1251;72345;-75
2024/01/23 00:58:06;;;;;;;22.60;15.00;;;;;;;-1.91;83.65;100673.62;108289;1256;59125;-75
2024/01/23 01:00:32;;;;;;;21.70;14.20;;;;;;;-1.89;83.97;100674.40;106246;1254;71267;-78
2024/01/23 01:02:59;;;;;;;22.70;15.20;;;;;;;-1.81;83.70;100646.97;106083;1253;60542;-76
2024/01/23 01:05:26;;;;;;;24.20;15.30;;;;;;;-1.82;83.86;100648.04;105969;1251;60453;-76
2024/01/23 01:07:54;;;;;;;21.40;14.70;;;;;;;-1.87;83.91;100644.63;105873;1266;73847;-76
2024/01/23 01:10:22;;;;;;;21.50;13.70;;;;;;;-1.90;83.96;100640.61;106098;1256;70385;-77
2024/01/23 01:12:49;;;;;;;21.00;14.50;;;;;;;-1.83;83.95;100619.09;106084;1251;73570;-75
2024/01/23 01:15:16;;;;;;;19.90;12.90;;;;;;;-1.82;83.84;100646.14;105891;1252;60713;-76
2024/01/23 01:17:43;;;;;;;20.50;13.60;;;;;;;-1.88;84.02;100655.43;105907;1255;60408;-78
2024/01/23 01:20:10;;;;;;;21.20;12.70;;;;;;;-1.94;84.37;100647.38;105830;1257;73727;-76
2024/01/23 01:22:38;;;;;;;20.40;13.20;;;;;;;-1.86;84.24;100651.86;106018;1255;70373;-76
2024/01/23 01:25:05;;;;;;;20.50;14.60;;;;;;;-1.80;84.00;100654.06;106248;1255;72686;-77
2024/01/23 01:27:32;;;;;;;19.00;12.80;;;;;;;-1.86;84.27;100633.48;106128;1253;60523;-78
2024/01/23 01:29:59;;;;;;;19.00;13.20;;;;;;;-1.88;84.36;100627.12;106128;1255;60435;-77
2024/01/23 01:32:25;;;;;;;21.60;12.80;;;;;;;-1.80;84.35;100629.91;106185;1256;73526;-77
2024/01/23 01:34:52;;;;;;;18.90;13.20;;;;;;;-1.80;84.20;100619.67;106075;1251;70349;-77
2024/01/23 01:37:19;;;;;;;20.30;12.80;;;;;;;-1.84;84.37;100614.30;105874;1251;72444;-76
2024/01/23 01:39:45;;;;;;;19.40;13.20;;;;;;;-1.80;84.39;100618.98;105907;1258;60492;-77
2024/01/23 01:42:12;;;;;;;22.00;14.10;;;;;;;-1.76;84.30;100622.11;105861;1257;60476;-77
2024/01/23 01:44:39;;;;;;;23.70;14.10;;;;;;;-1.81;84.31;100604.61;105994;1256;73673;-78
2024/01/23 01:47:05;;;;;;;17.80;12.30;;;;;;;-1.86;84.54;100615.05;106026;1256;68631;-78
2024/01/23 01:49:32;;;;;;;19.80;12.90;;;;;;;-1.78;84.47;100598.91;106108;1261;72592;-78
2024/01/23 01:51:59;;;;;;;19.20;12.90;;;;;;;-1.74;84.27;100602.20;107871;1251;60377;-77
2024/01/23 01:54:25;;;;;;;19.90;13.30;;;;;;;-1.78;84.21;100622.69;109170;1252;59033;-77
2024/01/23 01:56:52;;;;;;;17.00;11.50;;;;;;;-1.81;84.56;100610.16;107807;1257;74000;-77
2024/01/23 01:59:20;;;;;;;19.60;11.40;;;;;;;-1.74;84.39;100605.00;106157;1258;70206;-77
2024/01/23 02:01:47;;;;;;;17.40;12.90;;;;;;;-1.67;84.05;100609.03;106307;1259;72530;-77
2024/01/23 02:04:14;;;;;;;18.60;13.20;;;;;;;-1.71;84.00;100594.45;106142;1251;60511;-77
2024/01/23 02:06:41;;;;;;;20.40;12.70;;;;;;;-1.76;84.25;100581.11;107190;1256;60511;-79
2024/01/23 02:09:10;;;;;;;17.70;11.60;;;;;;;-1.71;84.19;100581.56;106459;1256;72343;-79
2024/01/23 02:11:37;;;;;;;19.80;12.50;;;;;;;-1.66;83.80;100598.05;105895;1259;69340;-80
2024/01/23 02:14:04;;;;;;;18.00;11.90;;;;;;;-1.70;83.85;100586.43;106106;1255;71533;-80
2024/01/23 02:16:31;;;;;;;19.60;11.30;;;;;;;-1.77;84.04;100586.19;108481;1251;60200;-78
2024/01/23 02:18:58;;;;;;;18.80;11.40;;;;;;;-1.76;84.04;100559.94;108776;1255;59117;-79
2024/01/23 02:21:25;;;;;;;17.30;11.40;;;;;;;-1.66;83.97;100562.27;108977;1255;72675;-79
2024/01/23 02:23:51;;;;;;;18.50;12.10;;;;;;;-1.64;83.86;100565.64;106264;1256;69055;-80
2024/01/23 02:26:18;;;;;;;19.40;12.40;;;;;;;-1.70;84.03;100543.00;106091;1251;60532;-81
2024/01/23 02:28:45;;;;;;;19.00;12.40;;;;;;;-1.76;84.04;100540.64;106144;1254;60425;-79
2024/01/23 02:31:11;;;;;;;18.10;12.40;;;;;;;-1.71;84.11;100539.71;106501;1254;60418;-79
2024/01/23 02:33:38;;;;;;;17.50;12.40;;;;;;;-1.67;83.85;100543.01;108024;1251;73891;-80
2024/01/23 02:36:05;;;;;;;16.30;11.80;;;;;;;-1.71;83.76;100544.44;108657;1251;70537;-77
2024/01/23 02:38:32;;;;;;;16.80;11.40;;;;;;;-1.77;84.00;100543.65;107172;1254;71493;-81
2024/01/23 02:41:00;;;;;;;14.40;11.20;;;;;;;-1.71;84.04;100549.66;106130;1251;60528;-81
2024/01/23 02:43:26;;;;;;;20.20;11.70;;;;;;;-1.67;83.64;100545.28;106350;1256;60498;-79
2024/01/23 02:45:53;;;;;;;19.20;12.50;;;;;;;-1.72;83.67;100538.41;106972;1254;72251;-80
2024/01/23 02:48:20;;;;;;;18.00;12.40;;;;;;;-1.80;84.04;100538.75;106551;1251;69523;-80
2024/01/23 02:50:47;;;;;;;17.30;11.30;;;;;;;-1.81;84.15;100528.71;109183;1251;72522;-77
2024/01/23 02:53:14;;;;;;;18.20;11.80;;;;;;;-1.72;83.94;100522.91;109342;1251;60530;-79
2024/01/23 02:55:41;;;;;;;14.40;10.90;;;;;;;-1.70;83.84;100515.02;107097;1256;60466;-78
2024/01/23 02:58:09;;;;;;;17.10;11.90;;;;;;;-1.75;83.87;100531.60;106415;1257;74003;-79
2024/01/23 03:00:38;;;;;;;18.60;11.20;;;;;;;-1.75;83.92;100517.15;106327;1256;70114;-80
2024/01/23 03:03:06;;;;;;;16.40;11.50;;;;;;;-1.69;83.84;100513.59;106062;1255;72583;-78
2024/01/23 03:05:33;;;;;;;18.10;11.80;;;;;;;-1.74;83.73;100516.94;106011;1256;60438;-78
2024/01/23 03:08:00;;;;;;;16.40;10.60;;;;;;;-1.81;83.95;100512.55;106000;1251;60322;-79
2024/01/23 03:10:27;;;;;;;15.30;11.00;;;;;;;-1.77;84.13;100497.27;106046;1256;73627;-77
2024/01/23 03:12:54;;;;;;;16.00;12.00;;;;;;;-1.69;83.76;100497.59;105989;1251;70112;-78
2024/01/23 03:15:21;;;;;;;16.30;11.50;;;;;;;-1.72;83.65;100489.78;106074;1257;71445;-81
2024/01/23 03:17:47;;;;;;;17.10;11.90;;;;;;;-1.79;83.86;100488.85;105867;1255;60485;-79
2024/01/23 03:20:14;;;;;;;17.20;10.40;;;;;;;-1.76;83.91;100502.27;105965;1255;60531;-79
2024/01/23 03:22:41;;;;;;;17.80;12.50;;;;;;;-1.75;83.65;100484.54;106132;1257;73706;-78
2024/01/23 03:25:08;;;;;;;15.20;9.60;;;;;;;-1.83;83.83;100502.55;107671;1251;67840;-79
2024/01/23 03:27:35;;;;;;;21.10;11.50;;;;;;;-1.77;83.85;100508.77;106750;1251;71356;-79
2024/01/23 03:30:02;;;;;;;17.30;10.90;;;;;;;-1.71;83.58;100484.48;106029;1257;62012;-80
2024/01/23 03:32:29;;;;;;;14.60;10.60;;;;;;;-1.74;83.67;100484.15;105925;1251;60341;-79
2024/01/23 03:34:55;;;;;;;17.40;10.50;;;;;;;-1.82;83.70;100492.09;105978;1251;72499;-77
2024/01/23 03:37:22;;;;;;;16.90;10.90;;;;;;;-1.84;83.79;100504.54;105968;1256;70171;-77
2024/01/23 03:39:49;;;;;;;13.60;10.10;;;;;;;-1.74;83.72;100498.72;105873;1258;72427;-78
2024/01/23 03:42:16;;;;;;;13.20;10.20;;;;;;;-1.69;83.54;100507.51;106026;1251;60523;-79
2024/01/23 03:44:43;;;;;;;13.80;11.00;;;;;;;-1.73;83.56;100499.20;106562;1251;60928;-80
2024/01/23 03:47:09;;;;;;;16.80;11.50;;;;;;;-1.78;83.82;100499.58;107276;1251;60290;-78
2024/01/23 03:49:36;;;;;;;16.30;10.20;;;;;;;-1.77;83.73;100496.94;109107;1254;69293;-80
2024/01/23 03:52:03;;;;;;;15.00;10.90;;;;;;;-1.66;83.69;100506.16;108798;1251;71189;-79
2024/01/23 03:54:31;;;;;;;15.80;11.10;;;;;;;-1.66;83.46;100503.36;106713;1257;60530;-80
2024/01/23 03:56:57;;;;;;;14.70;10.40;;;;;;;-1.70;83.66;100501.98;106559;1256;60350;-80
2024/01/23 03:59:24;;;;;;;17.10;10.90;;;;;;;-1.70;83.81;100519.90;106557;1257;73904;-78
2024/01/23 04:01:51;;;;;;;16.50;10.60;;;;;;;-1.61;83.48;100517.04;106805;1252;60467;-80
2024/01/23 04:04:17;;;;;;;14.30;9.90;;;;;;;-1.62;83.31;100520.71;106873;1251;72470;-80
2024/01/23 04:06:44;;;;;;;27.80;15.80;;;;;;;-1.67;83.50;100510.73;106321;1251;60454;-80
2024/01/23 04:09:11;;;;;;;16.30;10.90;;;;;;;-1.70;83.58;100505.98;106096;1251;60441;-80
2024/01/23 04:11:37;;;;;;;18.50;11.40;;;;;;;-1.65;83.41;100500.89;106000;1256;60415;-78
2024/01/23 04:14:04;;;;;;;19.40;11.60;;;;;;;-1.65;83.24;100490.63;106175;1254;69192;-79
2024/01/23 04:16:30;;;;;;;15.60;10.70;;;;;;;-1.70;83.34;100518.67;106073;1257;71477;-79
2024/01/23 04:18:57;;;;;;;13.40;9.50;;;;;;;-1.72;83.57;100518.94;105919;1256;60406;-82
2024/01/23 04:21:24;;;;;;;16.00;10.50;;;;;;;-1.64;83.32;100498.39;106077;1251;60527;-80
2024/01/23 04:23:51;;;;;;;17.40;10.90;;;;;;;-1.65;83.30;100492.71;106275;1251;73650;-80
2024/01/23 04:26:18;;;;;;;17.80;10.70;;;;;;;-1.69;83.34;100505.78;108922;1251;69149;-80
2024/01/23 04:28:46;;;;;;;15.40;10.20;;;;;;;-1.68;83.50;100490.79;108918;1251;71122;-80
2024/01/23 04:31:13;;;;;;;26.80;14.90;;;;;;;-1.59;83.07;100482.02;108976;1251;59421;-80
2024/01/23 04:33:39;;;;;;;16.10;10.20;;;;;;;-1.57;82.86;100489.39;108008;1257;60517;-80
2024/01/23 04:36:06;;;;;;;19.40;11.60;;;;;;;-1.61;82.98;100495.16;106605;1256;73715;-81
2024/01/23 04:38:33;;;;;;;15.00;10.20;;;;;;;-1.65;82.93;100496.56;106818;1250;70396;-80
2024/01/23 04:41:00;;;;;;;14.20;10.30;;;;;;;-1.56;82.74;100486.42;107317;1251;60531;-80
2024/01/23 04:43:26;;;;;;;16.00;11.20;;;;;;;-1.52;82.52;100475.09;106665;1251;60454;-81
2024/01/23 04:45:53;;;;;;;14.50;10.80;;;;;;;-1.55;82.69;100479.05;108723;1251;59589;-79
2024/01/23 04:48:19;;;;;;;16.30;10.60;;;;;;;-1.59;82.73;100499.05;109130;1251;73775;-80
2024/01/23 04:50:46;;;;;;;14.90;10.90;;;;;;;-1.51;82.58;100488.57;107920;1251;68803;-79
2024/01/23 04:53:13;;;;;;;13.50;9.80;;;;;;;-1.45;82.28;100483.08;107165;1254;71395;-80
2024/01/23 04:55:40;;;;;;;15.40;10.10;;;;;;;-1.49;82.41;100487.96;106837;1251;60438;-80
2024/01/23 04:58:07;;;;;;;15.80;10.90;;;;;;;-1.55;82.62;100484.63;106302;1251;60460;-79
2024/01/23 05:00:33;;;;;;;17.20;11.40;;;;;;;-1.49;82.48;100482.23;106113;1257;73845;-81
2024/01/23 05:03:01;;;;;;;16.20;11.20;;;;;;;-1.45;82.23;100496.48;106073;1251;70304;-80
2024/01/23 05:05:31;;;;;;;15.90;11.50;;;;;;;-1.50;82.20;100486.96;106313;1256;71538;-80
2024/01/23 05:07:57;;;;;;;17.40;10.50;;;;;;;-1.57;82.50;100481.73;106072;1251;60521;-80
2024/01/23 05:10:24;;;;;;;19.70;11.20;;;;;;;-1.54;82.70;100473.78;106179;1255;60865;-79
2024/01/23 05:12:51;;;;;;;18.90;11.30;;;;;;;-1.45;82.42;100507.95;106170;1258;73599;-80
2024/01/23 05:15:18;;;;;;;17.30;11.50;;;;;;;-1.47;82.28;100491.52;106066;1252;70289;-80
2024/01/23 05:17:44;;;;;;;18.80;11.90;;;;;;;-1.53;82.37;100482.10;106105;1254;72900;-80
2024/01/23 05:20:11;;;;;;;16.40;11.60;;;;;;;-1.55;82.62;100473.48;106147;1252;61038;-78
2024/01/23 05:22:37;;;;;;;22.10;13.20;;;;;;;-1.47;82.46;100457.14;106941;1251;60438;-80
2024/01/23 05:25:04;;;;;;;19.50;11.70;;;;;;;-1.48;82.44;100461.02;106018;1251;73631;-80
2024/01/23 05:27:31;;;;;;;17.20;11.40;;;;;;;-1.53;82.61;100460.20;106114;1255;70304;-80
2024/01/23 05:29:58;;;;;;;20.10;11.20;;;;;;;-1.54;82.81;100464.73;106017;1251;72332;-80
2024/01/23 05:32:25;;;;;;;20.80;13.90;;;;;;;-1.48;82.54;100467.23;105926;1257;60480;-80
2024/01/23 05:34:52;;;;;;;17.60;13.30;;;;;;;-1.49;82.52;100469.02;106039;1252;60309;-80
2024/01/23 05:37:19;;;;;;;17.30;11.10;;;;;;;-1.54;82.72;100473.29;106080;1257;73800;-79
2024/01/23 05:39:46;;;;;;;16.10;11.40;;;;;;;-1.53;82.79;100473.94;107488;1251;68719;-81
2024/01/23 05:42:13;;;;;;;25.20;13.90;;;;;;;-1.48;82.57;100461.69;106243;1251;71201;-81
2024/01/23 05:44:40;;;;;;;17.60;12.20;;;;;;;-1.51;82.63;100472.77;108855;1251;60293;-79
2024/01/23 05:47:11;;;;;;;18.00;12.20;;;;;;;-1.56;82.83;100478.75;109282;1251;58852;-82
2024/01/23 05:49:37;;;;;;;18.90;11.60;;;;;;;-1.49;82.79;100456.55;107481;1251;72543;-80
2024/01/23 05:52:05;;;;;;;17.60;12.10;;;;;;;-1.41;82.59;100464.82;106852;1251;70379;-81
2024/01/23 05:54:31;;;;;;;21.90;12.90;;;;;;;-1.45;82.52;100468.83;106698;1256;72896;-80
2024/01/23 05:56:59;;;;;;;18.10;11.40;;;;;;;-1.49;82.66;100457.74;106121;1251;60562;-80
2024/01/23 05:59:26;;;;;;;19.80;11.40;;;;;;;-1.49;82.91;100460.69;106652;1251;59326;-80
2024/01/23 06:01:52;;;;;;;16.50;11.50;;;;;;;-1.40;82.57;100463.39;107794;1251;60338;-81
2024/01/23 06:04:19;;;;;;;16.70;11.40;;;;;;;-1.39;82.43;100463.19;106625;1256;235907;-82
2024/01/23 06:09:26;;;;;;;17.60;13.30;;;;;;;-1.43;82.61;100471.70;103162;1297;600155;-81
2024/01/23 06:11:54;;;;;;;18.10;12.60;;;;;;;-1.36;82.50;100450.71;105437;1267;59586;-79
2024/01/23 06:14:21;;;;;;;21.70;13.60;;;;;;;-1.37;82.34;100444.31;105174;1272;59360;-80
2024/01/23 06:16:49;;;;;;;21.70;14.20;;;;;;;-1.41;82.51;100441.35;106311;1266;70881;-78
2024/01/23 06:19:19;;;;;;;17.90;11.90;;;;;;;-1.41;82.36;100459.27;107839;1266;69476;-80
2024/01/23 06:21:47;;;;;;;19.90;13.30;;;;;;;-1.27;82.13;100461.77;108334;1260;71692;-79
2024/01/23 06:24:15;;;;;;;23.60;13.60;;;;;;;-1.24;81.93;100444.15;106637;1260;169005;-78
2024/01/23 06:26:43;;;;;;;22.00;13.80;;;;;;;-1.27;81.95;100456.54;105757;1267;59243;-80
2024/01/23 06:29:10;;;;;;;21.90;13.70;;;;;;;-1.31;82.11;100447.16;105654;1260;70936;-79
2024/01/23 06:31:38;;;;;;;20.30;13.30;;;;;;;-1.25;82.01;100439.56;105623;1264;70679;-83
2024/01/23 06:34:06;;;;;;;17.60;12.60;;;;;;;-1.18;81.84;100452.61;106388;1260;72758;-82
2024/01/23 06:36:36;;;;;;;19.40;11.00;;;;;;;-1.20;81.79;100455.30;106442;1259;59674;-83
2024/01/23 06:39:03;;;;;;;19.40;12.50;;;;;;;-1.24;81.88;100460.53;106799;1257;59512;-83
2024/01/23 06:41:31;;;;;;;19.30;13.10;;;;;;;-1.15;81.88;100464.27;108105;1257;71745;-83
2024/01/23 06:43:59;;;;;;;19.00;12.30;;;;;;;-1.10;81.86;100449.08;109025;1260;68939;-82
2024/01/23 06:46:26;;;;;;;18.80;12.50;;;;;;;-1.12;81.80;100460.83;109067;1258;71874;-82
2024/01/23 06:48:54;;;;;;;18.60;12.20;;;;;;;-1.15;81.81;100455.57;108768;1257;59211;-82
2024/01/23 06:51:24;;;;;;;18.30;11.60;;;;;;;-1.06;81.71;100444.14;109024;1262;58807;-83
2024/01/23 06:53:52;;;;;;;15.00;11.30;;;;;;;-0.96;81.38;100458.11;108864;1257;73113;-82
2024/01/23 06:56:19;;;;;;;17.40;12.00;;;;;;;-0.99;81.32;100465.91;106501;1258;70654;-83
2024/01/23 06:58:47;;;;;;;20.40;12.60;;;;;;;-1.04;81.41;100462.48;107154;1262;71137;-83
2024/01/23 07:01:14;;;;;;;17.80;12.60;;;;;;;-0.97;81.43;100459.73;107380;1257;60931;-83
2024/01/23 07:03:42;;;;;;;18.30;12.30;;;;;;;-0.89;81.16;100452.02;106970;1257;60174;-83
2024/01/23 07:06:09;;;;;;;18.80;12.40;;;;;;;-0.94;81.20;100468.45;106291;1262;72200;-83
2024/01/23 07:08:37;;;;;;;20.00;12.50;;;;;;;-0.98;81.41;100472.63;106260;1257;70344;-84
2024/01/23 07:11:04;;;;;;;21.10;13.40;;;;;;;-0.87;81.40;100451.57;106085;1263;72626;-83
2024/01/23 07:13:32;;;;;;;22.00;14.00;;;;;;;-0.88;81.16;100468.14;106093;1262;59633;-82
2024/01/23 07:15:59;;;;;;;17.80;13.00;;;;;;;-0.91;81.40;100459.42;106251;1266;59653;-82
2024/01/23 07:18:27;;;;;;;17.10;12.00;;;;;;;-0.86;81.38;100467.19;106697;1263;71762;-82
2024/01/23 07:20:55;;;;;;;21.10;11.90;;;;;;;-0.78;81.01;100498.63;107897;1260;69201;-82
2024/01/23 07:23:23;;;;;;;17.90;12.80;;;;;;;-0.80;80.98;100480.10;106511;1265;71200;-83
2024/01/23 07:25:50;;;;;;;15.90;11.70;;;;;;;-0.78;81.00;100474.80;105895;1263;59636;-84
2024/01/23 07:28:18;;;;;;;18.80;13.60;;;;;;;-0.70;80.93;100475.77;105948;1262;59731;-83
2024/01/23 07:31:05;;;;;;;15.10;10.90;;;;;;;-0.71;80.67;100491.45;105995;1262;72935;-82
2024/01/23 07:33:34;;;;;;;16.10;11.30;;;;;;;-0.71;80.68;100486.27;107223;1263;70337;-83
2024/01/23 07:36:02;;;;;;;19.40;11.20;;;;;;;-0.63;80.56;100472.97;106224;1260;72328;-83
2024/01/23 07:38:30;;;;;;;20.40;13.80;;;;;;;-0.63;80.57;100465.63;106348;1263;59646;-83
2024/01/23 07:40:57;;;;;;;16.60;12.00;;;;;;;-0.66;80.74;100479.58;108160;1253;59160;-84
2024/01/23 07:43:28;;;;;;;16.10;11.50;;;;;;;-0.61;80.92;100478.45;109314;1258;73252;-83
2024/01/23 07:45:55;;;;;;;18.40;13.30;;;;;;;-0.49;80.45;100465.82;108480;1259;68876;-84
2024/01/23 07:48:24;;;;;;;22.20;13.80;;;;;;;-0.47;80.30;100486.23;107449;1257;71093;-83
2024/01/23 07:50:52;;;;;;;16.60;12.40;;;;;;;-0.50;80.23;100495.30;107418;1259;59745;-83
2024/01/23 07:53:19;;;;;;;18.60;12.40;;;;;;;-0.51;80.39;100485.56;106732;1254;60008;-84
2024/01/23 07:55:48;;;;;;;15.60;11.30;;;;;;;-0.40;79.85;100484.31;107165;1260;71722;-83
2024/01/23 07:58:15;;;;;;;17.70;11.70;;;;;;;-0.35;79.66;100469.77;105992;1259;68071;-84
2024/01/23 08:00:43;;;;;;;17.30;12.40;;;;;;;-0.36;79.68;100460.24;106591;1259;71953;-83
2024/01/23 08:03:10;;;;;;;15.90;10.20;;;;;;;-0.37;79.84;100472.84;107043;1261;59521;-83
2024/01/23 08:05:40;;;;;;;18.40;10.70;;;;;;;-0.28;79.49;100467.16;105990;1254;61102;-83
2024/01/23 08:08:07;;;;;;;17.40;11.80;;;;;;;-0.18;79.50;100483.01;106376;1260;73797;-84
2024/01/23 08:10:35;;;;;;;17.70;11.90;;;;;;;-0.21;79.02;100473.91;106715;1254;72349;-85
2024/01/23 08:13:03;;;;;;;18.50;11.90;;;;;;;-0.26;78.95;100468.45;106305;1259;74969;-83
2024/01/23 08:15:30;;;;;;;17.50;11.80;;;;;;;-0.28;79.43;100466.79;106317;1254;62329;-84
2024/01/23 08:17:58;;;;;;;17.90;11.00;;;;;;;-0.18;79.02;100456.17;106112;1254;59713;-83
2024/01/23 08:20:26;;;;;;;17.20;11.70;;;;;;;-0.13;78.81;100460.98;106052;1260;71807;-84
2024/01/23 08:22:54;;;;;;;15.50;11.50;;;;;;;-0.18;78.84;100484.39;106045;1260;68815;-83
2024/01/23 08:25:21;;;;;;;17.90;12.60;;;;;;;-0.24;78.91;100460.83;105788;1260;71697;-84
2024/01/23 08:27:48;;;;;;;17.90;12.70;;;;;;;-0.15;79.01;100467.02;105901;1258;60827;-83
2024/01/23 08:30:16;;;;;;;18.30;12.70;;;;;;;-0.09;78.59;100466.67;106298;1259;60297;-84
2024/01/23 08:32:44;;;;;;;17.20;11.30;;;;;;;-0.10;78.38;100480.14;107250;1258;72424;-85
2024/01/23 08:35:12;;;;;;;18.30;12.90;;;;;;;-0.13;78.39;100468.77;106285;1260;68725;-83
2024/01/23 08:37:39;;;;;;;17.40;12.20;;;;;;;-0.04;78.48;100462.75;106751;1259;71251;-83
2024/01/23 08:40:08;;;;;;;18.40;12.60;;;;;;;-0.01;78.02;100460.84;108611;1254;59554;-83
2024/01/23 08:42:35;;;;;;;17.00;12.10;;;;;;;0.01;78.04;100463.34;109186;1254;59938;-84
2024/01/23 08:45:04;;;;;;;21.40;13.30;;;;;;;0.01;78.18;100455.50;108286;1254;72039;-83
2024/01/23 08:47:32;;;;;;;17.60;11.00;;;;;;;0.11;77.86;100462.25;108089;1256;69483;-83
2024/01/23 08:50:00;;;;;;;18.00;13.10;;;;;;;0.17;77.27;100471.02;107273;1259;71497;-84
2024/01/23 08:52:27;;;;;;;18.10;13.60;;;;;;;0.11;77.35;100456.86;106650;1260;59630;-84
2024/01/23 08:54:55;;;;;;;17.30;12.30;;;;;;;0.07;77.64;100458.29;106245;1258;60038;-85
2024/01/23 08:57:24;;;;;;;17.90;11.70;;;;;;;0.15;77.79;100458.60;106164;1259;74801;-84
2024/01/23 08:59:52;;;;;;;17.40;11.50;;;;;;;0.18;77.30;100477.02;107469;1254;69277;-84
2024/01/23 09:02:19;;;;;;;15.60;10.60;;;;;;;0.12;77.28;100471.13;106414;1260;72719;-83
2024/01/23 09:04:47;;;;;;;17.90;10.90;;;;;;;0.04;77.59;100463.02;106150;1260;59697;-83
2024/01/23 09:07:16;;;;;;;16.20;10.40;;;;;;;0.06;77.73;100462.02;106058;1259;59969;-82
2024/01/23 09:09:45;;;;;;;19.00;13.00;;;;;;;0.10;77.81;100464.61;106035;1259;72524;-83
2024/01/23 09:12:13;;;;;;;21.20;14.20;;;;;;;0.03;77.87;100463.40;106230;1260;68725;-83
2024/01/23 09:14:41;;;;;;;21.90;12.50;;;;;;;-0.02;78.01;100467.48;106605;1255;71413;-82
2024/01/23 09:17:08;;;;;;;16.80;12.00;;;;;;;0.04;77.87;100478.67;106408;1254;62975;-82
2024/01/23 09:19:36;;;;;;;14.70;11.60;;;;;;;0.08;77.66;100459.12;107918;1254;59663;-79
2024/01/23 09:22:04;;;;;;;23.40;14.40;;;;;;;0.03;77.97;100439.19;106007;1254;71163;-79
2024/01/23 09:24:32;;;;;;;14.80;10.90;;;;;;;0.01;78.15;100453.95;105762;1263;69639;-81
2024/01/23 09:27:01;;;;;;;21.10;13.80;;;;;;;0.11;77.73;100471.88;105893;1259;71575;-81
2024/01/23 09:29:28;;;;;;;18.80;11.90;;;;;;;0.09;77.57;100471.77;106444;1254;60299;-81
2024/01/23 09:31:57;;;;;;;16.70;11.80;;;;;;;0.04;77.86;100456.23;105797;1255;60236;-81
2024/01/23 09:34:25;;;;;;;17.20;11.10;;;;;;;0.03;78.00;100463.91;106010;1255;75149;-82
2024/01/23 09:36:53;;;;;;;15.60;11.70;;;;;;;0.12;77.87;100448.11;106738;1254;67962;-81
2024/01/23 09:39:22;;;;;;;17.10;11.20;;;;;;;0.12;77.74;100460.64;109038;1254;71248;-82
2024/01/23 09:41:51;;;;;;;16.20;11.00;;;;;;;0.09;77.60;100452.62;108820;1254;59323;-83
2024/01/23 09:44:20;;;;;;;16.70;9.80;;;;;;;0.09;77.78;100481.04;106766;1254;59804;-81
2024/01/23 09:46:50;;;;;;;14.80;10.60;;;;;;;0.18;77.44;100461.73;106567;1255;75207;-82
2024/01/23 09:49:18;;;;;;;15.70;10.70;;;;;;;0.17;77.42;100465.44;106572;1259;71418;-82
2024/01/23 09:51:49;;;;;;;13.60;10.90;;;;;;;0.10;77.71;100456.08;105963;1260;73760;-82
2024/01/23 09:54:17;;;;;;;14.00;10.00;;;;;;;0.13;77.75;100450.83;106742;1254;59983;-83
2024/01/23 09:56:45;;;;;;;18.10;10.70;;;;;;;0.21;77.41;100458.11;107503;1257;59835;-82
2024/01/23 09:59:13;;;;;;;16.50;11.50;;;;;;;0.20;77.33;100450.98;107537;1260;75599;-84
2024/01/23 10:01:40;;;;;;;14.40;10.70;;;;;;;0.17;77.31;100443.30;106717;1254;70893;-83
2024/01/23 10:04:09;;;;;;;17.10;11.20;;;;;;;0.17;77.42;100429.57;106217;1254;72370;-83
2024/01/23 10:06:38;;;;;;;13.80;11.10;;;;;;;0.25;77.28;100429.48;106222;1260;59870;-83
2024/01/23 10:09:05;;;;;;;14.40;10.40;;;;;;;0.30;77.16;100410.72;106335;1260;62436;-82
2024/01/23 10:11:36;;;;;;;11.60;8.70;;;;;;;0.23;77.00;100448.91;106043;1260;73318;-82
2024/01/23 10:14:06;;;;;;;14.70;11.00;;;;;;;0.20;77.30;100413.52;106256;1260;71397;-82
2024/01/23 10:16:34;;;;;;;15.70;11.20;;;;;;;0.29;77.28;100417.23;106197;1260;73631;-82
2024/01/23 10:19:02;;;;;;;15.70;10.20;;;;;;;0.30;77.07;100429.17;107576;1254;62011;-82
2024/01/23 10:21:30;;;;;;;14.10;10.90;;;;;;;0.25;77.04;100423.40;108080;1254;60934;-82
2024/01/23 10:23:58;;;;;;;13.40;8.80;;;;;;;0.19;77.22;100429.08;107884;1260;73491;-82
2024/01/23 10:26:26;;;;;;;15.90;10.30;;;;;;;0.26;77.14;100435.16;107134;1255;71945;-81
2024/01/23 10:28:53;;;;;;;16.20;9.60;;;;;;;0.29;76.82;100450.84;106498;1260;71115;-84
2024/01/23 10:31:21;;;;;;;19.10;11.30;;;;;;;0.25;76.66;100420.77;105999;1257;60568;-84
2024/01/23 10:33:48;;;;;;;14.40;10.00;;;;;;;0.22;77.08;100423.54;106261;1254;60447;-83
2024/01/23 10:36:16;;;;;;;17.50;11.00;;;;;;;0.29;76.96;100431.84;107552;1254;73952;-84
2024/01/23 10:38:49;;;;;;;17.40;11.90;;;;;;;0.33;77.25;100431.30;109032;1254;68211;-82
2024/01/23 10:41:19;;;;;;;18.00;12.70;;;;;;;0.30;76.69;100411.79;108106;1254;71415;-82
2024/01/23 10:43:48;;;;;;;13.80;8.70;;;;;;;0.30;76.74;100426.73;106636;1254;61772;-81
2024/01/23 10:46:15;;;;;;;16.80;11.00;;;;;;;0.37;75.91;100440.28;106627;1253;61139;-81
2024/01/23 10:48:43;;;;;;;14.40;10.20;;;;;;;0.40;75.69;100439.77;106186;1260;76183;-80
2024/01/23 10:51:16;;;;;;;15.00;10.00;;;;;;;0.32;75.79;100437.44;106464;1254;70475;-81
2024/01/23 10:53:57;;;;;;;12.80;10.10;;;;;;;0.32;75.98;100421.60;105937;1259;72799;-81
2024/01/23 10:56:28;;;;;;;16.70;11.10;;;;;;;0.43;75.74;100429.33;106798;1260;60614;-82
2024/01/23 10:59:02;;;;;;;14.40;10.50;;;;;;;0.46;75.43;100415.95;106280;1257;60336;-82
2024/01/23 11:01:39;;;;;;;15.80;10.50;;;;;;;0.43;75.56;100421.31;106628;1260;75880;-82
2024/01/23 11:04:07;;;;;;;15.40;10.40;;;;;;;0.44;75.74;100426.33;107852;1253;70306;-79
2024/01/23 11:06:36;;;;;;;15.70;10.70;;;;;;;0.55;75.37;100416.10;109348;1254;70614;-82
2024/01/23 11:09:18;;;;;;;15.00;9.90;;;;;;;0.66;75.03;100426.65;108892;1254;59362;-83